sensor_id;sensor_type;location;lat;lon;timestamp;pressure;altitude;pressure_sealevel;temperature;humidity
47983;BME280;33751;50.816;-1.214;2023-04-27T00:01:38;101670.79;;;24.88;100.00
47983;BME280;33751;50.816;-1.214;2023-04-27T00:04:05;101669.25;;;25.05;100.00
47983;BME280;33751;50.816;-1.214;2023-04-27T00:06:31;101672.18;;;25.00;100.00
47983;BME280;33751;50.816;-1.214;2023-04-27T00:08:57;101672.35;;;24.89;100.00
47983;BME280;33751;50.816;-1.214;2023-04-27T00:11:24;101675.01;;;24.65;100.00
47983;BME280;33751;50.816;-1.214;2023-04-27T00:13:50;101674.40;;;25.23;100.00
47983;BME280;33751;50.816;-1.214;2023-04-27T00:16:17;101671.85;;;24.97;100.00
47983;BME280;33751;50.816;-1.214;2023-04-27T00:18:44;101669.17;;;24.79;100.00
47983;BME280;33751;50.816;-1.214;2023-04-27T00:21:11;101665.23;;;24.77;100.00
47983;BME280;33751;50.816;-1.214;2023-04-27T00:23:38;101665.45;;;25.07;100.00
47983;BME280;33751;50.816;-1.214;2023-04-27T00:26:05;101663.86;;;25.30;100.00
47983;BME280;33751;50.816;-1.214;2023-04-27T00:28:31;101660.10;;;24.86;100.00
47983;BME280;33751;50.816;-1.214;2023-04-27T00:30:58;101655.25;;;24.79;100.00
47983;BME280;33751;50.816;-1.214;2023-04-27T00:33:25;101651.58;;;24.74;100.00
47983;BME280;33751;50.816;-1.214;2023-04-27T00:35:52;101644.07;;;24.73;100.00
47983;BME280;33751;50.816;-1.214;2023-04-27T00:38:19;101637.82;;;24.96;100.00
47983;BME280;33751;50.816;-1.214;2023-04-27T00:40:46;101634.75;;;24.95;100.00
47983;BME280;33751;50.816;-1.214;2023-04-27T00:43:13;101630.87;;;24.92;100.00
47983;BME280;33751;50.816;-1.214;2023-04-27T00:45:41;101630.63;;;25.21;100.00
47983;BME280;33751;50.816;-1.214;2023-04-27T00:48:09;101628.41;;;24.78;100.00
47983;BME280;33751;50.816;-1.214;2023-04-27T00:50:36;101625.49;;;24.94;100.00
47983;BME280;33751;50.816;-1.214;2023-04-27T00:53:04;101622.67;;;25.13;100.00
47983;BME280;33751;50.816;-1.214;2023-04-27T00:55:31;101626.66;;;25.08;100.00
47983;BME280;33751;50.816;-1.214;2023-04-27T00:57:57;101630.23;;;25.11;100.00
47983;BME280;33751;50.816;-1.214;2023-04-27T01:00:24;101630.84;;;24.71;100.00
47983;BME280;33751;50.816;-1.214;2023-04-27T01:02:51;101628.86;;;25.24;100.00
47983;BME280;33751;50.816;-1.214;2023-04-27T01:05:18;101623.70;;;24.75;100.00
47983;BME280;33751;50.816;-1.214;2023-04-27T01:07:45;101621.55;;;24.87;100.00
47983;BME280;33751;50.816;-1.214;2023-04-27T01:10:12;101623.38;;;24.87;100.00
47983;BME280;33751;50.816;-1.214;2023-04-27T01:12:39;101618.81;;;24.93;100.00
47983;BME280;33751;50.816;-1.214;2023-04-27T01:15:06;101619.32;;;24.98;100.00
47983;BME280;33751;50.816;-1.214;2023-04-27T01:17:34;101617.36;;;24.52;100.00
47983;BME280;33751;50.816;-1.214;2023-04-27T01:20:01;101617.69;;;24.61;100.00
47983;BME280;33751;50.816;-1.214;2023-04-27T01:22:27;101615.35;;;24.57;100.00
47983;BME280;33751;50.816;-1.214;2023-04-27T01:24:54;101612.20;;;24.57;100.00
47983;BME280;33751;50.816;-1.214;2023-04-27T01:27:21;101612.58;;;24.73;100.00
47983;BME280;33751;50.816;-1.214;2023-04-27T01:29:48;101612.91;;;24.26;100.00
47983;BME280;33751;50.816;-1.214;2023-04-27T01:32:15;101617.79;;;24.43;100.00
47983;BME280;33751;50.816;-1.214;2023-04-27T01:34:41;101620.22;;;24.68;100.00
47983;BME280;33751;50.816;-1.214;2023-04-27T01:37:08;101620.59;;;24.29;100.00
47983;BME280;33751;50.816;-1.214;2023-04-27T01:39:34;101619.20;;;24.36;100.00
47983;BME280;33751;50.816;-1.214;2023-04-27T01:42:02;101620.75;;;24.76;100.00
47983;BME280;33751;50.816;-1.214;2023-04-27T01:44:29;101627.70;;;24.62;100.00
47983;BME280;33751;50.816;-1.214;2023-04-27T01:46:56;101626.01;;;24.92;100.00
47983;BME280;33751;50.816;-1.214;2023-04-27T01:49:22;101630.98;;;24.62;100.00
47983;BME280;33751;50.816;-1.214;2023-04-27T01:51:48;101631.92;;;24.60;100.00
47983;BME280;33751;50.816;-1.214;2023-04-27T01:54:15;101634.51;;;24.74;100.00
47983;BME280;33751;50.816;-1.214;2023-04-27T01:56:42;101637.57;;;24.27;100.00
47983;BME280;33751;50.816;-1.214;2023-04-27T01:59:09;101639.11;;;24.28;100.00
47983;BME280;33751;50.816;-1.214;2023-04-27T02:01:35;101641.01;;;24.35;100.00
47983;BME280;33751;50.816;-1.214;2023-04-27T02:04:02;101644.21;;;24.60;100.00
47983;BME280;33751;50.816;-1.214;2023-04-27T02:06:29;101640.02;;;24.59;100.00
47983;BME280;33751;50.816;-1.214;2023-04-27T02:08:56;101632.57;;;24.63;100.00
47983;BME280;33751;50.816;-1.214;2023-04-27T02:11:22;101631.71;;;24.72;100.00
47983;BME280;33751;50.816;-1.214;2023-04-27T02:13:48;101630.03;;;24.63;100.00
47983;BME280;33751;50.816;-1.214;2023-04-27T02:16:15;101629.35;;;24.71;100.00
47983;BME280;33751;50.816;-1.214;2023-04-27T02:18:41;101632.91;;;24.76;100.00
47983;BME280;33751;50.816;-1.214;2023-04-27T02:21:08;101634.26;;;24.77;100.00
47983;BME280;33751;50.816;-1.214;2023-04-27T02:23:35;101634.51;;;24.74;100.00
47983;BME280;33751;50.816;-1.214;2023-04-27T02:26:02;101630.64;;;24.41;100.00
47983;BME280;33751;50.816;-1.214;2023-04-27T02:28:29;101624.65;;;24.83;100.00
47983;BME280;33751;50.816;-1.214;2023-04-27T02:30:57;101618.32;;;24.75;100.00
47983;BME280;33751;50.816;-1.214;2023-04-27T02:33:23;101617.26;;;24.69;100.00
47983;BME280;33751;50.816;-1.214;2023-04-27T02:35:50;101611.26;;;24.15;100.00
47983;BME280;33751;50.816;-1.214;2023-04-27T02:38:17;101604.81;;;24.67;100.00
47983;BME280;33751;50.816;-1.214;2023-04-27T02:40:43;101604.82;;;24.31;100.00
47983;BME280;33751;50.816;-1.214;2023-04-27T02:43:10;101599.51;;;24.97;100.00
47983;BME280;33751;50.816;-1.214;2023-04-27T02:45:37;101599.07;;;24.65;100.00
47983;BME280;33751;50.816;-1.214;2023-04-27T02:48:04;101597.42;;;24.45;100.00
47983;BME280;33751;50.816;-1.214;2023-04-27T02:50:31;101590.66;;;24.58;100.00
47983;BME280;33751;50.816;-1.214;2023-04-27T02:52:58;101592.67;;;24.67;100.00
47983;BME280;33751;50.816;-1.214;2023-04-27T02:55:24;101590.97;;;24.61;100.00
47983;BME280;33751;50.816;-1.214;2023-04-27T02:57:50;101593.98;;;24.59;100.00
47983;BME280;33751;50.816;-1.214;2023-04-27T03:00:17;101587.18;;;24.44;100.00
47983;BME280;33751;50.816;-1.214;2023-04-27T03:02:44;101582.92;;;24.57;100.00
47983;BME280;33751;50.816;-1.214;2023-04-27T03:05:10;101579.70;;;24.88;100.00
47983;BME280;33751;50.816;-1.214;2023-04-27T03:07:37;101578.31;;;24.53;100.00
47983;BME280;33751;50.816;-1.214;2023-04-27T03:10:04;101578.13;;;24.45;100.00
47983;BME280;33751;50.816;-1.214;2023-04-27T03:12:30;101574.98;;;24.56;100.00
47983;BME280;33751;50.816;-1.214;2023-04-27T03:14:57;101575.65;;;24.53;100.00
47983;BME280;33751;50.816;-1.214;2023-04-27T03:17:24;101576.66;;;24.57;100.00
47983;BME280;33751;50.816;-1.214;2023-04-27T03:19:50;101570.48;;;24.52;100.00
47983;BME280;33751;50.816;-1.214;2023-04-27T03:22:17;101568.95;;;24.60;100.00
47983;BME280;33751;50.816;-1.214;2023-04-27T03:24:44;101565.98;;;24.25;100.00
47983;BME280;33751;50.816;-1.214;2023-04-27T03:27:10;101557.99;;;24.53;100.00
47983;BME280;33751;50.816;-1.214;2023-04-27T03:29:37;101555.87;;;24.46;100.00
47983;BME280;33751;50.816;-1.214;2023-04-27T03:32:04;101553.59;;;24.30;100.00
47983;BME280;33751;50.816;-1.214;2023-04-27T03:34:31;101546.43;;;24.18;100.00
47983;BME280;33751;50.816;-1.214;2023-04-27T03:36:58;101544.56;;;24.12;100.00
47983;BME280;33751;50.816;-1.214;2023-04-27T03:39:25;101540.26;;;24.12;100.00
47983;BME280;33751;50.816;-1.214;2023-04-27T03:41:52;101542.90;;;24.18;100.00
47983;BME280;33751;50.816;-1.214;2023-04-27T03:44:19;101543.96;;;24.12;100.00
47983;BME280;33751;50.816;-1.214;2023-04-27T03:46:45;101545.08;;;24.13;100.00
47983;BME280;33751;50.816;-1.214;2023-04-27T03:49:12;101548.29;;;24.30;100.00
47983;BME280;33751;50.816;-1.214;2023-04-27T03:51:39;101545.57;;;24.14;100.00
47983;BME280;33751;50.816;-1.214;2023-04-27T03:54:06;101547.09;;;24.14;100.00
47983;BME280;33751;50.816;-1.214;2023-04-27T03:56:32;101545.37;;;24.58;100.00
47983;BME280;33751;50.816;-1.214;2023-04-27T03:58:59;101542.94;;;24.00;100.00
47983;BME280;33751;50.816;-1.214;2023-04-27T04:01:25;101537.23;;;23.58;100.00
47983;BME280;33751;50.816;-1.214;2023-04-27T04:03:52;101532.47;;;23.80;100.00
47983;BME280;33751;50.816;-1.214;2023-04-27T04:06:19;101529.12;;;24.07;100.00
47983;BME280;33751;50.816;-1.214;2023-04-27T04:08:45;101524.86;;;24.26;100.00
47983;BME280;33751;50.816;-1.214;2023-04-27T04:11:13;101521.05;;;23.99;100.00
47983;BME280;33751;50.816;-1.214;2023-04-27T04:13:39;101512.80;;;23.94;100.00
47983;BME280;33751;50.816;-1.214;2023-04-27T04:16:07;101508.91;;;23.89;100.00
47983;BME280;33751;50.816;-1.214;2023-04-27T04:18:35;101501.38;;;23.95;100.00
47983;BME280;33751;50.816;-1.214;2023-04-27T04:21:02;101494.66;;;23.97;100.00
47983;BME280;33751;50.816;-1.214;2023-04-27T04:23:29;101496.55;;;23.73;100.00
47983;BME280;33751;50.816;-1.214;2023-04-27T04:25:56;101499.48;;;23.83;100.00
47983;BME280;33751;50.816;-1.214;2023-04-27T04:28:22;101502.71;;;24.12;100.00
47983;BME280;33751;50.816;-1.214;2023-04-27T04:30:49;101502.85;;;23.86;100.00
47983;BME280;33751;50.816;-1.214;2023-04-27T04:33:16;101504.29;;;23.88;100.00
47983;BME280;33751;50.816;-1.214;2023-04-27T04:35:44;101505.27;;;23.96;100.00
47983;BME280;33751;50.816;-1.214;2023-04-27T04:38:11;101510.21;;;23.78;100.00
47983;BME280;33751;50.816;-1.214;2023-04-27T04:40:39;101505.60;;;24.32;100.00
47983;BME280;33751;50.816;-1.214;2023-04-27T04:43:06;101499.78;;;23.92;100.00
47983;BME280;33751;50.816;-1.214;2023-04-27T04:45:33;101495.29;;;23.98;100.00
47983;BME280;33751;50.816;-1.214;2023-04-27T04:47:59;101494.43;;;23.97;100.00
47983;BME280;33751;50.816;-1.214;2023-04-27T04:50:26;101492.69;;;24.01;100.00
47983;BME280;33751;50.816;-1.214;2023-04-27T04:52:52;101496.30;;;23.86;100.00
47983;BME280;33751;50.816;-1.214;2023-04-27T04:55:19;101499.33;;;23.89;100.00
47983;BME280;33751;50.816;-1.214;2023-04-27T04:57:46;101496.61;;;23.93;100.00
47983;BME280;33751;50.816;-1.214;2023-04-27T05:00:13;101492.85;;;23.99;100.00
47983;BME280;33751;50.816;-1.214;2023-04-27T05:02:40;101496.51;;;23.95;100.00
47983;BME280;33751;50.816;-1.214;2023-04-27T05:05:08;101497.67;;;23.95;100.00
47983;BME280;33751;50.816;-1.214;2023-04-27T05:07:34;101504.48;;;23.98;100.00
47983;BME280;33751;50.816;-1.214;2023-04-27T05:10:01;101510.27;;;23.73;100.00
47983;BME280;33751;50.816;-1.214;2023-04-27T05:12:27;101515.18;;;24.03;100.00
47983;BME280;33751;50.816;-1.214;2023-04-27T05:14:54;101514.27;;;24.17;100.00
47983;BME280;33751;50.816;-1.214;2023-04-27T05:17:20;101511.27;;;23.91;100.00
47983;BME280;33751;50.816;-1.214;2023-04-27T05:19:47;101501.00;;;23.88;100.00
47983;BME280;33751;50.816;-1.214;2023-04-27T05:22:13;101489.77;;;23.99;100.00
47983;BME280;33751;50.816;-1.214;2023-04-27T05:24:40;101484.15;;;24.49;100.00
47983;BME280;33751;50.816;-1.214;2023-04-27T05:27:06;101487.32;;;23.96;100.00
47983;BME280;33751;50.816;-1.214;2023-04-27T05:29:33;101490.94;;;24.00;100.00
47983;BME280;33751;50.816;-1.214;2023-04-27T05:31:59;101493.55;;;24.03;100.00
47983;BME280;33751;50.816;-1.214;2023-04-27T05:34:26;101493.12;;;23.55;100.00
47983;BME280;33751;50.816;-1.214;2023-04-27T05:36:52;101489.05;;;24.03;100.00
47983;BME280;33751;50.816;-1.214;2023-04-27T05:39:19;101491.64;;;23.85;100.00
47983;BME280;33751;50.816;-1.214;2023-04-27T05:41:45;101500.36;;;23.67;100.00
47983;BME280;33751;50.816;-1.214;2023-04-27T05:44:12;101515.90;;;23.18;100.00
47983;BME280;33751;50.816;-1.214;2023-04-27T05:46:38;101519.62;;;23.46;100.00
47983;BME280;33751;50.816;-1.214;2023-04-27T05:49:05;101515.03;;;23.42;100.00
47983;BME280;33751;50.816;-1.214;2023-04-27T05:51:32;101516.28;;;23.84;100.00
47983;BME280;33751;50.816;-1.214;2023-04-27T05:53:58;101502.66;;;24.00;100.00
47983;BME280;33751;50.816;-1.214;2023-04-27T05:56:25;101479.96;;;24.34;100.00
47983;BME280;33751;50.816;-1.214;2023-04-27T05:58:51;101473.23;;;24.21;100.00
47983;BME280;33751;50.816;-1.214;2023-04-27T06:01:18;101488.71;;;24.31;100.00
47983;BME280;33751;50.816;-1.214;2023-04-27T06:03:44;101487.74;;;24.22;100.00
47983;BME280;33751;50.816;-1.214;2023-04-27T06:06:11;101479.57;;;24.44;100.00
47983;BME280;33751;50.816;-1.214;2023-04-27T06:08:37;101480.26;;;24.83;100.00
47983;BME280;33751;50.816;-1.214;2023-04-27T06:11:04;101492.82;;;24.75;100.00
47983;BME280;33751;50.816;-1.214;2023-04-27T06:13:31;101494.05;;;24.79;100.00
47983;BME280;33751;50.816;-1.214;2023-04-27T06:15:57;101490.96;;;25.11;100.00
47983;BME280;33751;50.816;-1.214;2023-04-27T06:18:24;101488.17;;;24.48;100.00
47983;BME280;33751;50.816;-1.214;2023-04-27T06:20:51;101488.25;;;24.62;100.00
47983;BME280;33751;50.816;-1.214;2023-04-27T06:23:18;101489.09;;;24.99;100.00
47983;BME280;33751;50.816;-1.214;2023-04-27T06:25:46;101487.90;;;24.70;100.00
47983;BME280;33751;50.816;-1.214;2023-04-27T06:28:12;101492.22;;;24.69;100.00
47983;BME280;33751;50.816;-1.214;2023-04-27T06:30:38;101489.97;;;24.96;100.00
47983;BME280;33751;50.816;-1.214;2023-04-27T06:33:05;101481.90;;;25.10;100.00
47983;BME280;33751;50.816;-1.214;2023-04-27T06:35:31;101480.32;;;25.07;100.00
47983;BME280;33751;50.816;-1.214;2023-04-27T06:37:58;101478.40;;;24.84;100.00
47983;BME280;33751;50.816;-1.214;2023-04-27T06:40:25;101481.36;;;25.14;100.00
47983;BME280;33751;50.816;-1.214;2023-04-27T06:42:52;101485.47;;;25.07;100.00
47983;BME280;33751;50.816;-1.214;2023-04-27T06:45:19;101480.74;;;24.77;100.00
47983;BME280;33751;50.816;-1.214;2023-04-27T06:47:46;101482.53;;;24.65;100.00
47983;BME280;33751;50.816;-1.214;2023-04-27T06:50:13;101482.47;;;25.16;100.00
47983;BME280;33751;50.816;-1.214;2023-04-27T06:52:40;101481.58;;;25.23;100.00
47983;BME280;33751;50.816;-1.214;2023-04-27T06:55:07;101482.13;;;25.27;100.00
47983;BME280;33751;50.816;-1.214;2023-04-27T06:57:33;101480.38;;;24.95;100.00
47983;BME280;33751;50.816;-1.214;2023-04-27T07:00:00;101482.78;;;25.03;100.00
47983;BME280;33751;50.816;-1.214;2023-04-27T07:02:27;101485.36;;;25.25;100.00
47983;BME280;33751;50.816;-1.214;2023-04-27T07:04:54;101488.87;;;25.80;100.00
47983;BME280;33751;50.816;-1.214;2023-04-27T07:07:20;101485.36;;;25.64;100.00
47983;BME280;33751;50.816;-1.214;2023-04-27T07:09:47;101493.59;;;25.43;100.00
47983;BME280;33751;50.816;-1.214;2023-04-27T07:12:13;101495.04;;;25.64;100.00
47983;BME280;33751;50.816;-1.214;2023-04-27T07:14:40;101500.82;;;25.46;100.00
47983;BME280;33751;50.816;-1.214;2023-04-27T07:17:07;101498.80;;;25.37;100.00
47983;BME280;33751;50.816;-1.214;2023-04-27T07:19:35;101502.88;;;25.35;100.00
47983;BME280;33751;50.816;-1.214;2023-04-27T07:22:02;101499.63;;;25.57;100.00
47983;BME280;33751;50.816;-1.214;2023-04-27T07:24:29;101505.76;;;25.92;100.00
47983;BME280;33751;50.816;-1.214;2023-04-27T07:26:55;101505.87;;;25.62;100.00
47983;BME280;33751;50.816;-1.214;2023-04-27T07:29:22;101513.81;;;26.01;100.00
47983;BME280;33751;50.816;-1.214;2023-04-27T07:31:49;101507.96;;;25.55;100.00
47983;BME280;33751;50.816;-1.214;2023-04-27T07:34:16;101508.98;;;25.74;100.00
47983;BME280;33751;50.816;-1.214;2023-04-27T07:36:44;101506.04;;;25.77;100.00
47983;BME280;33751;50.816;-1.214;2023-04-27T07:39:10;101510.19;;;25.55;100.00
47983;BME280;33751;50.816;-1.214;2023-04-27T07:41:37;101510.70;;;25.85;100.00
47983;BME280;33751;50.816;-1.214;2023-04-27T07:44:04;101502.84;;;25.73;100.00
47983;BME280;33751;50.816;-1.214;2023-04-27T07:46:30;101497.10;;;25.56;100.00
47983;BME280;33751;50.816;-1.214;2023-04-27T07:48:57;101489.80;;;25.85;100.00
47983;BME280;33751;50.816;-1.214;2023-04-27T07:51:24;101490.44;;;25.79;100.00
47983;BME280;33751;50.816;-1.214;2023-04-27T07:53:50;101489.88;;;25.62;100.00
47983;BME280;33751;50.816;-1.214;2023-04-27T07:56:17;101488.16;;;26.29;100.00
47983;BME280;33751;50.816;-1.214;2023-04-27T07:58:43;101484.08;;;25.90;100.00
47983;BME280;33751;50.816;-1.214;2023-04-27T08:01:10;101479.87;;;26.13;100.00
47983;BME280;33751;50.816;-1.214;2023-04-27T08:03:36;101480.76;;;25.65;100.00
47983;BME280;33751;50.816;-1.214;2023-04-27T08:06:04;101479.24;;;25.74;100.00
47983;BME280;33751;50.816;-1.214;2023-04-27T08:08:31;101477.26;;;25.44;100.00
47983;BME280;33751;50.816;-1.214;2023-04-27T08:10:58;101476.87;;;25.19;100.00
47983;BME280;33751;50.816;-1.214;2023-04-27T08:13:24;101461.92;;;25.33;100.00
47983;BME280;33751;50.816;-1.214;2023-04-27T08:15:51;101456.95;;;25.39;100.00
47983;BME280;33751;50.816;-1.214;2023-04-27T08:18:18;101454.54;;;25.79;100.00
47983;BME280;33751;50.816;-1.214;2023-04-27T08:20:45;101462.16;;;25.64;100.00
47983;BME280;33751;50.816;-1.214;2023-04-27T08:23:12;101459.49;;;26.32;100.00
47983;BME280;33751;50.816;-1.214;2023-04-27T08:25:40;101460.39;;;26.02;100.00
47983;BME280;33751;50.816;-1.214;2023-04-27T08:28:07;101458.40;;;26.26;100.00
47983;BME280;33751;50.816;-1.214;2023-04-27T08:30:33;101454.00;;;25.97;100.00
47983;BME280;33751;50.816;-1.214;2023-04-27T08:33:00;101454.41;;;26.28;100.00
47983;BME280;33751;50.816;-1.214;2023-04-27T08:35:26;101455.71;;;25.42;100.00
47983;BME280;33751;50.816;-1.214;2023-04-27T08:37:53;101453.49;;;26.14;100.00
47983;BME280;33751;50.816;-1.214;2023-04-27T08:40:19;101453.17;;;26.29;100.00
47983;BME280;33751;50.816;-1.214;2023-04-27T08:42:54;101456.42;;;26.39;100.00
47983;BME280;33751;50.816;-1.214;2023-04-27T08:45:22;101450.93;;;26.54;100.00
47983;BME280;33751;50.816;-1.214;2023-04-27T08:47:48;101451.84;;;26.78;100.00
47983;BME280;33751;50.816;-1.214;2023-04-27T08:50:15;101459.49;;;26.79;100.00
47983;BME280;33751;50.816;-1.214;2023-04-27T08:52:43;101456.48;;;26.45;100.00
47983;BME280;33751;50.816;-1.214;2023-04-27T08:55:09;101454.75;;;26.58;100.00
47983;BME280;33751;50.816;-1.214;2023-04-27T08:57:36;101451.11;;;26.47;100.00
47983;BME280;33751;50.816;-1.214;2023-04-27T09:00:04;101450.24;;;26.61;100.00
47983;BME280;33751;50.816;-1.214;2023-04-27T09:02:31;101451.89;;;26.85;100.00
47983;BME280;33751;50.816;-1.214;2023-04-27T09:04:58;101450.69;;;26.74;100.00
47983;BME280;33751;50.816;-1.214;2023-04-27T09:07:24;101444.18;;;26.26;100.00
47983;BME280;33751;50.816;-1.214;2023-04-27T09:10:01;101443.23;;;26.23;100.00
47983;BME280;33751;50.816;-1.214;2023-04-27T09:12:28;101442.62;;;26.12;100.00
47983;BME280;33751;50.816;-1.214;2023-04-27T09:14:56;101441.20;;;26.64;100.00
47983;BME280;33751;50.816;-1.214;2023-04-27T09:17:24;101445.83;;;26.80;100.00
47983;BME280;33751;50.816;-1.214;2023-04-27T09:19:52;101439.15;;;26.22;100.00
47983;BME280;33751;50.816;-1.214;2023-04-27T09:22:28;101438.77;;;26.37;100.00
47983;BME280;33751;50.816;-1.214;2023-04-27T09:24:55;101433.16;;;26.43;100.00
47983;BME280;33751;50.816;-1.214;2023-04-27T09:27:21;101430.43;;;26.24;100.00
47983;BME280;33751;50.816;-1.214;2023-04-27T09:29:48;101432.99;;;26.90;100.00
47983;BME280;33751;50.816;-1.214;2023-04-27T09:32:15;101438.48;;;26.89;100.00
47983;BME280;33751;50.816;-1.214;2023-04-27T09:34:42;101430.84;;;26.90;100.00
47983;BME280;33751;50.816;-1.214;2023-04-27T09:37:09;101430.27;;;26.75;100.00
47983;BME280;33751;50.816;-1.214;2023-04-27T09:39:37;101423.49;;;26.75;100.00
47983;BME280;33751;50.816;-1.214;2023-04-27T09:42:04;101422.35;;;27.13;100.00
47983;BME280;33751;50.816;-1.214;2023-04-27T09:44:32;101421.01;;;27.11;100.00
47983;BME280;33751;50.816;-1.214;2023-04-27T09:47:00;101417.12;;;26.98;100.00
47983;BME280;33751;50.816;-1.214;2023-04-27T09:49:27;101410.01;;;27.40;100.00
47983;BME280;33751;50.816;-1.214;2023-04-27T09:51:55;101409.43;;;27.70;100.00
47983;BME280;33751;50.816;-1.214;2023-04-27T09:54:26;101410.78;;;27.38;100.00
47983;BME280;33751;50.816;-1.214;2023-04-27T09:57:06;101406.60;;;27.31;100.00
47983;BME280;33751;50.816;-1.214;2023-04-27T10:00:21;101405.55;;;27.93;100.00
47983;BME280;33751;50.816;-1.214;2023-04-27T10:03:02;101396.62;;;27.47;100.00
47983;BME280;33751;50.816;-1.214;2023-04-27T10:05:40;101396.74;;;27.53;100.00
47983;BME280;33751;50.816;-1.214;2023-04-27T10:08:08;101385.77;;;27.79;100.00
47983;BME280;33751;50.816;-1.214;2023-04-27T10:10:47;101384.23;;;27.99;100.00
47983;BME280;33751;50.816;-1.214;2023-04-27T10:13:23;101384.21;;;27.91;100.00
47983;BME280;33751;50.816;-1.214;2023-04-27T10:15:51;101377.94;;;27.78;100.00
47983;BME280;33751;50.816;-1.214;2023-04-27T10:18:28;101373.41;;;27.99;100.00
47983;BME280;33751;50.816;-1.214;2023-04-27T10:20:55;101370.47;;;27.90;100.00
47983;BME280;33751;50.816;-1.214;2023-04-27T10:23:24;101371.14;;;27.65;100.00
47983;BME280;33751;50.816;-1.214;2023-04-27T10:25:53;101370.42;;;27.84;100.00
47983;BME280;33751;50.816;-1.214;2023-04-27T10:28:20;101367.36;;;27.74;100.00
47983;BME280;33751;50.816;-1.214;2023-04-27T10:30:47;101364.47;;;27.71;100.00
47983;BME280;33751;50.816;-1.214;2023-04-27T10:33:16;101360.37;;;27.56;100.00
47983;BME280;33751;50.816;-1.214;2023-04-27T10:35:52;101347.07;;;27.57;100.00
47983;BME280;33751;50.816;-1.214;2023-04-27T10:38:25;101350.30;;;27.77;100.00
47983;BME280;33751;50.816;-1.214;2023-04-27T10:40:55;101348.23;;;27.57;100.00
47983;BME280;33751;50.816;-1.214;2023-04-27T10:43:24;101346.08;;;27.80;100.00
47983;BME280;33751;50.816;-1.214;2023-04-27T10:45:52;101346.97;;;27.32;100.00
47983;BME280;33751;50.816;-1.214;2023-04-27T10:48:19;101350.59;;;27.69;100.00
47983;BME280;33751;50.816;-1.214;2023-04-27T10:50:46;101346.14;;;27.59;100.00
47983;BME280;33751;50.816;-1.214;2023-04-27T10:53:16;101348.46;;;27.50;100.00
47983;BME280;33751;50.816;-1.214;2023-04-27T10:55:43;101361.44;;;27.53;100.00
47983;BME280;33751;50.816;-1.214;2023-04-27T10:58:10;101354.27;;;27.51;100.00
47983;BME280;33751;50.816;-1.214;2023-04-27T11:00:39;101355.27;;;27.44;100.00
47983;BME280;33751;50.816;-1.214;2023-04-27T11:03:12;101358.98;;;27.48;100.00
47983;BME280;33751;50.816;-1.214;2023-04-27T11:05:40;101357.47;;;27.42;100.00
47983;BME280;33751;50.816;-1.214;2023-04-27T11:08:08;101363.88;;;27.49;100.00
47983;BME280;33751;50.816;-1.214;2023-04-27T11:10:38;101363.96;;;27.43;100.00
47983;BME280;33751;50.816;-1.214;2023-04-27T11:13:07;101357.93;;;27.53;100.00
47983;BME280;33751;50.816;-1.214;2023-04-27T11:15:51;101353.88;;;27.68;100.00
47983;BME280;33751;50.816;-1.214;2023-04-27T11:18:20;101353.10;;;27.66;100.00
47983;BME280;33751;50.816;-1.214;2023-04-27T11:20:49;101346.49;;;27.53;100.00
47983;BME280;33751;50.816;-1.214;2023-04-27T11:23:25;101343.41;;;27.47;100.00
47983;BME280;33751;50.816;-1.214;2023-04-27T11:25:52;101339.32;;;27.76;100.00
47983;BME280;33751;50.816;-1.214;2023-04-27T11:28:24;101331.06;;;27.62;100.00
47983;BME280;33751;50.816;-1.214;2023-04-27T11:30:58;101331.74;;;27.54;100.00
47983;BME280;33751;50.816;-1.214;2023-04-27T11:33:25;101331.01;;;27.55;100.00
47983;BME280;33751;50.816;-1.214;2023-04-27T11:35:52;101335.99;;;27.40;100.00
47983;BME280;33751;50.816;-1.214;2023-04-27T11:38:20;101332.42;;;27.40;100.00
47983;BME280;33751;50.816;-1.214;2023-04-27T11:40:58;101327.37;;;27.30;100.00
47983;BME280;33751;50.816;-1.214;2023-04-27T11:43:26;101322.10;;;27.17;100.00
47983;BME280;33751;50.816;-1.214;2023-04-27T11:45:54;101315.69;;;27.74;100.00
47983;BME280;33751;50.816;-1.214;2023-04-27T11:48:22;101315.32;;;27.50;100.00
47983;BME280;33751;50.816;-1.214;2023-04-27T11:50:49;101314.59;;;27.78;100.00
47983;BME280;33751;50.816;-1.214;2023-04-27T11:53:16;101311.18;;;27.28;100.00
47983;BME280;33751;50.816;-1.214;2023-04-27T11:55:42;101299.44;;;27.87;100.00
47983;BME280;33751;50.816;-1.214;2023-04-27T11:58:13;101290.52;;;27.38;100.00
47983;BME280;33751;50.816;-1.214;2023-04-27T12:00:40;101289.94;;;27.56;100.00
47983;BME280;33751;50.816;-1.214;2023-04-27T12:03:08;101289.35;;;27.56;100.00
47983;BME280;33751;50.816;-1.214;2023-04-27T12:05:34;101288.43;;;27.41;100.00
47983;BME280;33751;50.816;-1.214;2023-04-27T12:08:01;101294.42;;;27.74;100.00
47983;BME280;33751;50.816;-1.214;2023-04-27T12:10:27;101292.61;;;27.88;100.00
47983;BME280;33751;50.816;-1.214;2023-04-27T12:12:54;101281.70;;;27.95;100.00
47983;BME280;33751;50.816;-1.214;2023-04-27T12:15:21;101278.67;;;27.74;100.00
47983;BME280;33751;50.816;-1.214;2023-04-27T12:17:48;101269.33;;;28.04;100.00
47983;BME280;33751;50.816;-1.214;2023-04-27T12:20:15;101269.37;;;28.14;100.00
47983;BME280;33751;50.816;-1.214;2023-04-27T12:22:42;101264.17;;;27.56;100.00
47983;BME280;33751;50.816;-1.214;2023-04-27T12:25:08;101261.37;;;27.75;100.00
47983;BME280;33751;50.816;-1.214;2023-04-27T12:27:35;101259.89;;;27.94;100.00
47983;BME280;33751;50.816;-1.214;2023-04-27T12:30:01;101262.98;;;27.80;100.00
47983;BME280;33751;50.816;-1.214;2023-04-27T12:32:28;101261.35;;;27.30;100.00